createdAt,value
2022-10-20T00:02:36.966Z,2.58
2022-10-20T00:05:40.495Z,2.50
2022-10-20T00:08:46.024Z,2.35
2022-10-20T00:11:50.690Z,2.60
2022-10-20T00:14:53.590Z,2.00
2022-10-20T00:17:57.857Z,2.50
2022-10-20T00:21:00.742Z,2.10
2022-10-20T00:24:04.369Z,2.60
2022-10-20T00:27:07.623Z,2.33
2022-10-20T00:30:11.152Z,2.67
2022-10-20T00:33:16.370Z,2.50
2022-10-20T00:36:20.905Z,2.40
2022-10-20T00:39:23.663Z,2.20
2022-10-20T00:42:27.118Z,1.95
2022-10-20T00:45:30.473Z,2.33
2022-10-20T00:48:34.911Z,2.10
2022-10-20T00:51:37.674Z,2.37
2022-10-20T00:54:40.803Z,2.20
2022-10-20T00:57:47.190Z,1.90
2022-10-20T01:00:52.589Z,2.28
2022-10-20T01:03:56.134Z,2.28
2022-10-20T01:06:59.447Z,1.85
2022-10-20T01:10:04.139Z,2.37
2022-10-20T01:13:36.501Z,1.70
2022-10-20T01:16:58.274Z,2.15
2022-10-20T01:20:10.541Z,2.20
2022-10-20T01:23:33.501Z,2.17
2022-10-20T01:26:55.548Z,2.03
2022-10-20T01:30:07.021Z,2.25
2022-10-20T01:33:25.435Z,1.95
2022-10-20T01:36:36.340Z,2.05
2022-10-20T01:39:45.607Z,1.98
2022-10-20T01:42:51.100Z,2.15
2022-10-20T01:45:54.803Z,2.22
2022-10-20T01:48:57.899Z,2.30
2022-10-20T01:52:01.492Z,2.00
2022-10-20T01:55:12.133Z,2.50
2022-10-20T01:58:40.256Z,1.85
2022-10-20T02:02:02.656Z,2.12
2022-10-20T02:05:27.910Z,2.12
2022-10-20T02:08:44.833Z,2.20
2022-10-20T02:12:16.850Z,2.22
2022-10-20T02:15:24.232Z,2.40
2022-10-20T02:18:32.239Z,2.85
2022-10-20T02:21:35.066Z,2.40
2022-10-20T02:24:40.176Z,2.30
2022-10-20T02:27:46.991Z,2.47
2022-10-20T02:30:50.159Z,2.50
2022-10-20T02:33:54.953Z,2.50
2022-10-20T02:36:59.127Z,2.22
2022-10-20T02:40:02.081Z,2.22
2022-10-20T02:43:05.321Z,2.05
2022-10-20T02:46:08.277Z,2.47
2022-10-20T02:49:11.355Z,2.12
2022-10-20T02:52:14.652Z,2.50
2022-10-20T02:58:26.369Z,2.20
2022-10-20T03:01:29.934Z,2.20
2022-10-20T03:04:32.758Z,2.45
2022-10-20T03:07:37.558Z,2.35
2022-10-20T03:10:41.749Z,2.30
2022-10-20T03:13:44.796Z,2.30
2022-10-20T03:16:47.718Z,2.62
2022-10-20T03:19:50.807Z,2.87
2022-10-20T03:22:53.675Z,2.25
2022-10-20T03:26:07.522Z,2.35
2022-10-20T03:29:10.349Z,2.22
2022-10-20T03:32:13.880Z,2.30
2022-10-20T03:35:16.673Z,2.33
2022-10-20T03:38:20.038Z,2.55
2022-10-20T03:41:22.991Z,2.40
2022-10-20T03:44:26.558Z,2.55
2022-10-20T03:47:29.449Z,2.92
2022-10-20T03:50:32.706Z,2.47
2022-10-20T03:53:36.812Z,2.25
2022-10-20T03:56:40.755Z,2.85
2022-10-20T03:59:43.566Z,2.47
2022-10-20T04:02:47.512Z,2.58
2022-10-20T04:05:50.598Z,2.33
2022-10-20T04:08:53.892Z,2.62
2022-10-20T04:11:57.085Z,2.78
2022-10-20T04:14:59.873Z,3.00
2022-10-20T04:18:02.924Z,2.60
2022-10-20T04:21:05.861Z,2.60
2022-10-20T04:24:08.971Z,2.72
2022-10-20T04:27:11.907Z,2.83
2022-10-20T04:30:15.230Z,2.87
2022-10-20T04:33:18.037Z,3.08
2022-10-20T04:36:22.626Z,2.80
2022-10-20T04:39:25.614Z,2.65
2022-10-20T04:42:29.475Z,2.72
2022-10-20T04:45:32.263Z,2.97
2022-10-20T04:48:35.725Z,2.70
2022-10-20T04:51:38.499Z,2.80
2022-10-20T04:54:41.641Z,2.62
2022-10-20T04:57:44.601Z,3.15
2022-10-20T05:00:47.750Z,2.90
2022-10-20T05:03:50.752Z,3.08
2022-10-20T05:06:53.750Z,3.80
2022-10-20T05:09:56.289Z,2.90
2022-10-20T05:12:59.139Z,3.05
2022-10-20T05:16:01.855Z,2.97
2022-10-20T05:19:07.002Z,3.35
2022-10-20T05:22:09.679Z,3.03
2022-10-20T05:25:35.982Z,3.12
2022-10-20T05:28:40.080Z,3.95
2022-10-20T05:31:44.733Z,4.10
2022-10-20T05:34:47.865Z,3.40
2022-10-20T05:37:51.150Z,5.35
2022-10-20T05:40:53.942Z,4.78
2022-10-20T05:43:59.949Z,4.47
2022-10-20T05:47:02.849Z,6.18
2022-10-20T05:50:07.524Z,6.22
2022-10-20T05:53:10.333Z,6.35
2022-10-20T05:56:19.395Z,5.65
2022-10-20T05:59:23.269Z,5.40
2022-10-20T06:02:26.401Z,5.10
2022-10-20T06:05:30.733Z,4.43
2022-10-20T06:08:34.237Z,4.15
2022-10-20T06:11:39.563Z,3.53
2022-10-20T06:14:42.595Z,3.58
2022-10-20T06:17:47.124Z,4.07
2022-10-20T06:20:59.705Z,3.80
2022-10-20T06:24:05.775Z,3.78
2022-10-20T06:27:09.673Z,3.28
2022-10-20T06:30:12.755Z,3.60
2022-10-20T06:33:17.047Z,3.28
2022-10-20T06:36:23.703Z,3.67
2022-10-20T06:39:26.662Z,3.97
2022-10-20T06:42:29.813Z,3.62
2022-10-20T06:45:33.083Z,3.70
2022-10-20T06:48:36.320Z,3.80
2022-10-20T06:51:39.293Z,3.65
2022-10-20T06:54:42.475Z,3.47
2022-10-20T06:57:45.331Z,4.25
2022-10-20T07:00:48.716Z,3.37
2022-10-20T07:03:54.028Z,2.90
2022-10-20T07:06:57.215Z,2.85
2022-10-20T07:09:59.959Z,3.60
2022-10-20T07:13:03.781Z,5.37
2022-10-20T07:16:08.315Z,5.95
2022-10-20T07:19:11.616Z,4.97
2022-10-20T07:22:14.355Z,5.60
2022-10-20T07:25:17.338Z,5.45
2022-10-20T07:28:21.896Z,4.55
2022-10-20T07:31:27.821Z,3.72
2022-10-20T07:34:33.855Z,4.90
2022-10-20T07:37:37.216Z,5.40
2022-10-20T07:40:40.327Z,6.35
2022-10-20T07:43:44.113Z,5.68
2022-10-20T07:46:49.178Z,5.82
2022-10-20T07:52:54.675Z,5.32
2022-10-20T07:55:57.687Z,5.53
2022-10-20T07:59:01.431Z,6.03
2022-10-20T08:02:04.754Z,6.05
2022-10-20T08:05:08.885Z,6.22
2022-10-20T08:08:11.722Z,6.35
2022-10-20T08:11:15.331Z,6.22
2022-10-20T08:14:18.381Z,5.32
2022-10-20T08:20:41.782Z,4.87
2022-10-20T08:23:46.572Z,3.20
2022-10-20T08:26:49.911Z,3.93
2022-10-20T08:30:00.286Z,4.28
2022-10-20T08:33:15.180Z,3.80
2022-10-20T08:36:18.275Z,3.28
2022-10-20T08:39:21.035Z,3.17
2022-10-20T08:42:24.373Z,3.47
2022-10-20T08:45:29.406Z,3.40
2022-10-20T08:48:35.041Z,3.45
2022-10-20T08:54:48.609Z,3.50
2022-10-20T08:57:51.362Z,3.25
2022-10-20T09:00:58.219Z,2.78
2022-10-20T09:04:14.492Z,3.37
2022-10-20T09:07:25.277Z,2.97
2022-10-20T09:10:37.832Z,3.17
2022-10-20T09:13:40.898Z,3.55
2022-10-20T09:16:59.854Z,3.10
2022-10-20T09:20:04.987Z,3.15
2022-10-20T09:23:35.625Z,3.17
2022-10-20T09:30:20.160Z,3.58
2022-10-20T09:33:30.044Z,3.47
2022-10-20T09:36:35.407Z,3.83
2022-10-20T09:39:51.359Z,3.33
2022-10-20T09:43:03.277Z,2.92
2022-10-20T09:46:08.236Z,3.00
2022-10-20T09:49:22.943Z,2.90
2022-10-20T09:52:30.671Z,2.47
2022-10-20T09:55:35.962Z,2.75
2022-10-20T09:58:39.573Z,2.90
2022-10-20T10:02:22.462Z,2.55
2022-10-20T10:05:33.305Z,2.72
2022-10-20T10:08:45.577Z,3.00
2022-10-20T10:12:06.581Z,2.42
2022-10-20T10:15:27.947Z,2.53
2022-10-20T10:18:31.366Z,2.45
2022-10-20T10:21:49.070Z,3.10
2022-10-20T10:24:55.157Z,2.92
2022-10-20T10:28:00.664Z,2.97
2022-10-20T10:31:18.706Z,2.90
2022-10-20T10:34:21.376Z,2.90
2022-10-20T10:37:24.425Z,2.58
2022-10-20T10:40:35.626Z,2.97
2022-10-20T10:43:48.847Z,2.62
2022-10-20T10:47:01.640Z,2.97
2022-10-20T10:50:35.844Z,3.20
2022-10-20T10:53:53.990Z,3.20
2022-10-20T10:57:03.412Z,3.47
2022-10-20T11:00:36.867Z,2.90
2022-10-20T11:03:49.353Z,2.90
2022-10-20T11:07:21.579Z,2.60
2022-10-20T11:10:37.200Z,3.15
2022-10-20T11:13:58.843Z,2.87
2022-10-20T11:17:08.781Z,2.37
2022-10-20T11:20:38.935Z,2.53
2022-10-20T11:24:00.431Z,2.58
2022-10-20T11:27:11.837Z,2.10
2022-10-20T11:30:19.515Z,1.98
2022-10-20T11:33:24.421Z,1.95
2022-10-20T11:36:32.205Z,2.08
2022-10-20T11:40:19.667Z,2.00
2022-10-20T11:43:27.746Z,1.80
2022-10-20T11:46:53.235Z,1.80
2022-10-20T11:49:56.440Z,1.50
2022-10-20T11:53:34.477Z,1.67
2022-10-20T11:57:02.776Z,1.60
2022-10-20T12:00:25.729Z,1.70
2022-10-20T12:04:03.132Z,1.75
2022-10-20T12:07:18.908Z,1.67
2022-10-20T12:10:43.012Z,1.80
2022-10-20T12:14:00.646Z,1.67
2022-10-20T12:17:22.559Z,1.87
2022-10-20T12:20:25.363Z,1.73
2022-10-20T12:23:45.373Z,1.80
2022-10-20T12:27:10.017Z,1.60
2022-10-20T12:30:55.691Z,1.90
2022-10-20T12:34:02.081Z,1.60
2022-10-20T12:37:09.088Z,1.77
2022-10-20T12:40:11.750Z,1.70
2022-10-20T12:43:34.969Z,1.70
2022-10-20T12:46:43.249Z,1.92
2022-10-20T12:49:54.921Z,1.45
2022-10-20T12:53:29.819Z,1.90
2022-10-20T12:56:36.808Z,1.80
2022-10-20T12:59:41.309Z,1.65
2022-10-20T13:02:46.759Z,1.90
2022-10-20T13:05:49.566Z,1.83
2022-10-20T13:09:10.453Z,1.95
2022-10-20T13:12:29.069Z,2.53
2022-10-20T13:15:55.087Z,1.90
2022-10-20T13:18:58.038Z,1.87
2022-10-20T13:22:38.125Z,1.75
2022-10-20T13:25:45.901Z,1.30
2022-10-20T13:28:51.019Z,1.90
2022-10-20T13:32:20.351Z,1.55
2022-10-20T13:35:30.293Z,1.90
2022-10-20T13:38:46.407Z,1.98
2022-10-20T13:42:27.299Z,1.87
2022-10-20T13:45:51.848Z,1.65
2022-10-20T13:48:57.891Z,1.75
2022-10-20T13:52:04.794Z,3.00
2022-10-20T13:55:12.966Z,1.83
2022-10-20T13:58:21.688Z,1.40
2022-10-20T14:01:25.065Z,1.48
2022-10-20T14:04:37.156Z,1.60
2022-10-20T14:07:42.358Z,1.60
2022-10-20T14:10:57.840Z,1.40
2022-10-20T14:14:01.719Z,1.80
2022-10-20T14:17:06.992Z,1.70
2022-10-20T14:20:19.266Z,2.40
2022-10-20T14:23:23.718Z,2.75
2022-10-20T14:26:26.937Z,3.15
2022-10-20T14:29:33.064Z,2.93
2022-10-20T14:32:40.115Z,2.67
2022-10-20T14:35:49.366Z,2.05
2022-10-20T14:38:55.581Z,1.95
2022-10-20T14:42:00.567Z,1.77
2022-10-20T14:45:04.412Z,1.52
2022-10-20T14:48:14.735Z,1.50
2022-10-20T14:51:35.365Z,1.87
2022-10-20T14:54:42.525Z,2.78
2022-10-20T14:57:46.981Z,1.83
2022-10-20T15:00:51.480Z,1.70
2022-10-20T15:07:18.201Z,2.60
2022-10-20T15:10:23.481Z,2.12
2022-10-20T15:13:32.685Z,2.53
2022-10-20T15:16:45.895Z,2.15
2022-10-20T15:19:49.005Z,2.22
2022-10-20T15:22:54.685Z,2.35
2022-10-20T15:26:01.734Z,2.17
2022-10-20T15:29:08.976Z,2.08
2022-10-20T15:32:12.552Z,2.35
2022-10-20T15:35:19.610Z,2.35
2022-10-20T15:38:23.161Z,1.98
2022-10-20T15:41:28.631Z,1.80
2022-10-20T15:44:32.033Z,1.90
2022-10-20T15:47:34.940Z,2.03
2022-10-20T15:50:38.621Z,1.50
2022-10-20T15:53:41.642Z,1.90
2022-10-20T15:56:45.082Z,1.90
2022-10-20T15:59:48.142Z,2.53
2022-10-20T16:02:51.880Z,4.62
2022-10-20T16:05:55.237Z,3.92
2022-10-20T16:08:58.167Z,6.35
2022-10-20T16:12:02.069Z,4.45
2022-10-20T16:15:06.798Z,3.95
2022-10-20T16:18:10.790Z,7.10
2022-10-20T16:21:13.871Z,8.82
2022-10-20T16:24:17.279Z,6.78
2022-10-20T16:27:20.231Z,5.57
2022-10-20T16:30:23.546Z,7.18
2022-10-20T16:33:28.284Z,5.22
2022-10-20T16:36:31.967Z,7.25
2022-10-20T16:39:38.052Z,8.57
2022-10-20T16:42:46.093Z,14.00
2022-10-20T16:45:49.039Z,15.15
2022-10-20T16:48:52.377Z,11.90
2022-10-20T16:51:55.734Z,10.60
2022-10-20T16:54:59.581Z,5.70
2022-10-20T16:58:03.584Z,3.50
2022-10-20T17:01:13.965Z,2.87
2022-10-20T17:04:18.002Z,2.67
2022-10-20T17:07:21.434Z,2.67
2022-10-20T17:10:26.430Z,3.47
2022-10-20T17:13:30.491Z,4.37
2022-10-20T17:16:34.711Z,3.00
2022-10-20T17:19:41.449Z,2.67
2022-10-20T17:22:44.900Z,2.28
2022-10-20T17:25:49.075Z,2.50
2022-10-20T17:28:55.123Z,3.30
2022-10-20T17:31:59.994Z,2.58
2022-10-20T17:35:03.467Z,2.20
2022-10-20T17:38:07.183Z,1.90
2022-10-20T17:41:13.503Z,2.12
2022-10-20T17:44:17.247Z,2.10
2022-10-20T17:47:20.448Z,1.75
2022-10-20T17:50:25.959Z,2.45
2022-10-20T17:53:41.277Z,3.03
2022-10-20T17:56:45.164Z,2.20
2022-10-20T17:59:53.493Z,2.30
2022-10-20T18:02:59.206Z,2.10
2022-10-20T18:06:12.105Z,2.35
2022-10-20T18:09:17.557Z,2.08
2022-10-20T18:12:21.623Z,1.90
2022-10-20T18:15:25.989Z,2.10
2022-10-20T18:18:29.850Z,2.50
2022-10-20T18:21:33.749Z,2.53
2022-10-20T18:24:38.316Z,16.63
2022-10-20T18:27:42.954Z,18.37
2022-10-20T18:30:46.495Z,21.62
2022-10-20T18:33:53.183Z,21.75
2022-10-20T18:36:57.080Z,16.23
2022-10-20T18:40:02.973Z,21.45
2022-10-20T18:43:06.713Z,19.08
2022-10-20T18:46:10.809Z,17.70
2022-10-20T18:49:16.766Z,22.30
2022-10-20T18:52:20.235Z,21.98
2022-10-20T18:55:24.238Z,22.45
2022-10-20T18:58:30.317Z,21.15
2022-10-20T19:01:36.494Z,15.75
2022-10-20T19:04:40.401Z,16.58
2022-10-20T19:07:52.513Z,17.25
2022-10-20T19:10:56.650Z,18.65
2022-10-20T19:14:01.086Z,16.30
2022-10-20T19:17:05.106Z,15.60
2022-10-20T19:20:10.431Z,13.13
2022-10-20T19:23:14.189Z,10.70
2022-10-20T19:26:20.110Z,7.77
2022-10-20T19:29:25.321Z,6.12
2022-10-20T19:32:29.183Z,8.23
2022-10-20T19:35:33.756Z,14.77
2022-10-20T19:38:43.760Z,8.20
2022-10-20T19:41:48.312Z,3.15
2022-10-20T19:44:53.153Z,3.83
2022-10-20T19:47:56.755Z,5.05
2022-10-20T19:51:10.267Z,6.80
2022-10-20T19:54:15.025Z,9.85
2022-10-20T19:57:20.181Z,9.35
2022-10-20T20:00:23.816Z,9.05
2022-10-20T20:03:28.005Z,8.75
2022-10-20T20:06:34.985Z,9.50
2022-10-20T20:09:42.281Z,13.13
2022-10-20T20:12:45.672Z,9.68
2022-10-20T20:15:49.690Z,6.82
2022-10-20T20:18:53.425Z,3.83
2022-10-20T20:21:56.907Z,6.75
2022-10-20T20:25:00.090Z,5.30
2022-10-20T20:28:05.298Z,5.80
2022-10-20T20:31:11.567Z,3.87
2022-10-20T20:34:15.793Z,10.75
2022-10-20T20:37:18.892Z,9.15
2022-10-20T20:40:22.234Z,7.25
2022-10-20T20:43:25.612Z,8.60
2022-10-20T20:46:31.292Z,6.95
2022-10-20T20:52:37.490Z,6.90
2022-10-20T20:55:40.308Z,6.87
2022-10-20T20:58:49.108Z,6.60
2022-10-20T21:01:51.924Z,8.73
2022-10-20T21:04:55.712Z,8.73
2022-10-20T21:07:58.737Z,6.20
2022-10-20T21:11:14.244Z,6.90
2022-10-20T21:14:17.249Z,6.80
2022-10-20T21:17:20.514Z,6.37
2022-10-20T21:20:23.488Z,6.95
2022-10-20T21:23:26.972Z,6.90
2022-10-20T21:26:30.392Z,6.37
2022-10-20T21:29:33.759Z,6.68
2022-10-20T21:32:36.897Z,6.87
2022-10-20T21:35:40.802Z,6.90
2022-10-20T21:38:44.174Z,6.43
2022-10-20T21:41:49.113Z,6.28
2022-10-20T21:44:52.000Z,6.70
2022-10-20T21:47:56.167Z,6.32
2022-10-20T21:50:59.087Z,5.93
2022-10-20T21:54:08.304Z,5.75
2022-10-20T21:57:11.210Z,4.45
2022-10-20T22:00:14.867Z,5.25
2022-10-20T22:03:17.913Z,5.57
2022-10-20T22:06:22.925Z,5.22
2022-10-20T22:12:28.860Z,4.35
2022-10-20T22:15:37.515Z,4.30
2022-10-20T22:18:40.409Z,4.22
2022-10-20T22:21:47.131Z,4.03
2022-10-20T22:24:50.004Z,3.35
2022-10-20T22:27:53.484Z,3.28
2022-10-20T22:30:56.435Z,4.05
2022-10-20T22:34:00.841Z,4.37
2022-10-20T22:37:03.748Z,5.05
2022-10-20T22:40:08.680Z,5.78
2022-10-20T22:43:11.562Z,5.20
2022-10-20T22:46:16.116Z,5.47
2022-10-20T22:49:18.866Z,5.50
2022-10-20T22:52:21.889Z,4.68
2022-10-20T22:55:24.706Z,5.20
2022-10-20T22:58:27.794Z,5.28
2022-10-20T23:01:30.627Z,4.72
2022-10-20T23:04:33.768Z,4.07
2022-10-20T23:07:36.998Z,4.47
2022-10-20T23:10:40.492Z,3.65
2022-10-20T23:13:43.602Z,4.28
2022-10-20T23:16:46.713Z,3.87
2022-10-20T23:19:49.843Z,4.55
2022-10-20T23:22:52.976Z,5.20
2022-10-20T23:25:57.564Z,5.47
2022-10-20T23:29:03.131Z,6.28
2022-10-20T23:32:06.279Z,5.55
2022-10-20T23:35:09.661Z,5.68
2022-10-20T23:38:13.031Z,5.80
2022-10-20T23:41:16.200Z,6.20
2022-10-20T23:44:19.394Z,6.95
2022-10-20T23:47:22.320Z,6.85
2022-10-20T23:50:26.875Z,6.47
2022-10-20T23:53:30.649Z,6.12
2022-10-20T23:56:33.739Z,5.85
2022-10-20T23:59:37.353Z,6.20
